Time;durP1;ratioP1;P1;durP2;ratioP2;P2;SDS_P1;SDS_P2;PMS_P1;PMS_P2;Temp;Humidity;BMP_temperature;BMP_pressure;BME280_temperature;BME280_humidity;BME280_pressure;Samples;Min_cycle;Max_cycle;Signal;HPM_P1;HPM_P2
2022/11/15 00:00:49;;;;;;;26.23;19.30;;;7.80;99.90;;;;;;5013298;28;20107;-68
2022/11/15 00:03:20;;;;;;;28.63;20.20;;;7.80;99.90;;;;;;5016213;28;20047;-68
2022/11/15 00:05:46;;;;;;;32.58;21.30;;;7.80;99.90;;;;;;5018122;28;20037;-68
2022/11/15 00:08:13;;;;;;;28.70;20.30;;;7.70;99.90;;;;;;5035376;28;20040;-69
2022/11/15 00:10:38;;;;;;;27.98;19.73;;;7.70;99.90;;;;;;5036055;28;20060;-68
2022/11/15 00:13:14;;;;;;;26.75;19.00;;;7.60;99.90;;;;;;5018040;28;20494;-68
2022/11/15 00:15:41;;;;;;;28.45;19.48;;;7.60;99.90;;;;;;5035366;28;20037;-68
2022/11/15 00:18:12;;;;;;;26.75;18.25;;;7.60;99.90;;;;;;5018574;28;20104;-68
2022/11/15 00:20:38;;;;;;;26.90;17.65;;;7.50;99.90;;;;;;5018033;28;20425;-69
2022/11/15 00:23:04;;;;;;;29.38;21.05;;;7.50;99.90;;;;;;5016916;28;20052;-69
2022/11/15 00:25:30;;;;;;;29.83;19.20;;;7.50;99.90;;;;;;5035451;28;20048;-69
2022/11/15 00:27:57;;;;;;;29.80;19.48;;;7.50;99.90;;;;;;5017725;28;20045;-68
2022/11/15 00:30:23;;;;;;;28.27;19.05;;;7.50;99.90;;;;;;5017290;28;20383;-68
2022/11/15 00:32:49;;;;;;;25.33;19.15;;;7.50;99.90;;;;;;5044926;28;20409;-68
2022/11/15 00:35:15;;;;;;;27.63;19.55;;;7.50;99.90;;;;;;5055448;28;20124;-68
2022/11/15 00:37:41;;;;;;;29.58;20.58;;;7.50;99.90;;;;;;5036835;28;20107;-69
2022/11/15 00:40:07;;;;;;;27.02;19.55;;;7.50;99.90;;;;;;5037509;28;20102;-68
2022/11/15 00:42:33;;;;;;;28.73;20.27;;;7.60;99.90;;;;;;5036438;28;20041;-69
2022/11/15 00:44:59;;;;;;;31.55;21.50;;;7.60;99.90;;;;;;5037182;28;20448;-68
2022/11/15 00:47:24;;;;;;;29.17;20.10;;;7.60;99.90;;;;;;5037074;28;20047;-69
2022/11/15 00:49:50;;;;;;;26.00;19.48;;;7.60;99.90;;;;;;5036429;28;20075;-68
2022/11/15 00:52:16;;;;;;;32.00;20.13;;;7.60;99.90;;;;;;5054950;28;20086;-69
2022/11/15 00:54:41;;;;;;;27.75;19.42;;;7.60;99.90;;;;;;5037172;28;20095;-69
2022/11/15 00:57:08;;;;;;;27.70;19.52;;;7.60;99.90;;;;;;5036415;28;20037;-69
2022/11/15 00:59:33;;;;;;;29.00;19.83;;;7.70;99.90;;;;;;5020477;28;20044;-69
2022/11/15 01:01:59;;;;;;;28.15;19.35;;;7.70;99.90;;;;;;5020293;28;20040;-69
2022/11/15 01:04:25;;;;;;;28.67;20.00;;;7.60;99.90;;;;;;5036065;28;20033;-69
2022/11/15 01:06:51;;;;;;;25.83;18.77;;;7.70;99.90;;;;;;5054579;28;20037;-69
2022/11/15 01:09:16;;;;;;;25.90;17.23;;;7.70;99.90;;;;;;5054670;28;20048;-69
2022/11/15 01:11:42;;;;;;;24.75;17.65;;;7.70;99.90;;;;;;5035932;28;20041;-70
2022/11/15 01:14:08;;;;;;;27.42;17.73;;;7.70;99.90;;;;;;5035704;28;20048;-70
2022/11/15 01:16:34;;;;;;;25.95;18.95;;;7.70;99.90;;;;;;5054508;28;20059;-69
2022/11/15 01:19:00;;;;;;;27.90;19.55;;;7.70;99.90;;;;;;5035780;28;20036;-69
2022/11/15 01:21:25;;;;;;;26.23;18.95;;;7.70;99.90;;;;;;5036535;28;20138;-69
2022/11/15 01:23:57;;;;;;;24.95;17.58;;;7.70;99.90;;;;;;5036744;28;20076;-69
2022/11/15 01:26:24;;;;;;;24.38;17.27;;;7.70;99.90;;;;;;5035548;28;20106;-69
2022/11/15 01:28:50;;;;;;;26.50;19.83;;;7.70;99.90;;;;;;5036581;28;20048;-69
2022/11/15 01:31:19;;;;;;;28.67;20.20;;;7.70;99.90;;;;;;5036761;28;20033;-69
2022/11/15 01:33:46;;;;;;;25.25;17.80;;;7.60;99.90;;;;;;5035390;28;20060;-69
2022/11/15 01:36:18;;;;;;;28.15;18.80;;;7.60;99.90;;;;;;5036771;28;20110;-68
2022/11/15 01:38:44;;;;;;;25.63;19.23;;;7.70;99.90;;;;;;5035648;28;20049;-69
2022/11/15 01:41:18;;;;;;;29.52;20.67;;;7.60;99.90;;;;;;5054527;28;20120;-69
2022/11/15 01:43:44;;;;;;;28.02;19.13;;;7.60;99.90;;;;;;5054151;28;20427;-69
2022/11/15 01:46:37;;;;;;;28.45;20.65;;;7.60;99.90;;;;;;5053463;28;20116;-69
2022/11/15 01:49:11;;;;;;;28.73;19.90;;;7.60;99.90;;;;;;5053788;28;20067;-69
2022/11/15 01:51:37;;;;;;;29.15;20.65;;;7.60;99.90;;;;;;5054118;28;20398;-69
2022/11/15 01:54:08;;;;;;;33.03;20.92;;;7.60;99.90;;;;;;5035404;28;20064;-69
2022/11/15 01:56:44;;;;;;;26.98;19.92;;;7.60;99.90;;;;;;5035887;28;20088;-69
2022/11/15 01:59:11;;;;;;;31.65;21.35;;;7.50;99.90;;;;;;5053992;28;20537;-68
2022/11/15 02:01:37;;;;;;;28.77;19.25;;;7.50;99.90;;;;;;5035091;28;20394;-69
2022/11/15 02:04:12;;;;;;;29.10;20.60;;;7.50;99.90;;;;;;5035889;28;20036;-69
2022/11/15 02:06:40;;;;;;;30.20;20.88;;;7.40;99.90;;;;;;5036297;28;20098;-69
2022/11/15 02:09:06;;;;;;;28.40;19.75;;;7.40;99.90;;;;;;5035241;28;20389;-68
2022/11/15 02:11:32;;;;;;;31.52;21.42;;;7.40;99.90;;;;;;5019344;28;20041;-69
2022/11/15 02:13:59;;;;;;;27.67;19.90;;;7.40;99.90;;;;;;5052643;28;20083;-69
2022/11/15 02:16:27;;;;;;;29.67;18.92;;;7.40;99.90;;;;;;5053361;28;20053;-70
2022/11/15 02:19:17;;;;;;;35.08;19.90;;;7.30;99.90;;;;;;5053385;28;20033;-69
2022/11/15 02:22:18;;;;;;;29.73;18.48;;;7.30;99.90;;;;;;5052515;28;20064;-69
2022/11/15 02:25:06;;;;;;;27.10;18.52;;;7.20;99.90;;;;;;5035211;28;20072;-68
2022/11/15 02:27:34;;;;;;;33.00;20.00;;;7.20;99.90;;;;;;5035242;28;20049;-68
2022/11/15 02:30:27;;;;;;;26.52;18.20;;;7.10;99.90;;;;;;5034417;28;20122;-68
2022/11/15 02:33:07;;;;;;;28.52;18.27;;;7.10;99.90;;;;;;5034919;28;20061;-68
2022/11/15 02:36:00;;;;;;;25.48;17.52;;;7.10;99.90;;;;;;5034723;28;20111;-69
2022/11/15 02:38:54;;;;;;;30.77;17.98;;;7.00;99.90;;;;;;5034901;28;20052;-68
2022/11/15 02:41:54;;;;;;;25.67;16.23;;;7.10;99.90;;;;;;5034929;28;20041;-68
2022/11/15 02:44:38;;;;;;;25.05;16.42;;;7.00;99.90;;;;;;5021359;28;20037;-69
2022/11/15 02:47:14;;;;;;;29.25;18.75;;;7.00;99.90;;;;;;5052732;28;20040;-69
2022/11/15 02:49:49;;;;;;;26.23;16.85;;;7.00;99.90;;;;;;5034452;28;20126;-68
2022/11/15 02:52:21;;;;;;;28.85;19.77;;;7.00;99.90;;;;;;5052960;28;20077;-68
2022/11/15 02:55:00;;;;;;;30.60;19.50;;;7.00;99.90;;;;;;5052858;28;20068;-68
2022/11/15 02:57:50;;;;;;;29.42;18.33;;;7.00;99.90;;;;;;5033970;28;20048;-68
2022/11/15 03:00:20;;;;;;;25.45;16.58;;;7.00;99.90;;;;;;5034775;28;20087;-68
2022/11/15 03:03:12;;;;;;;32.05;19.17;;;7.00;99.90;;;;;;5018126;28;20048;-69
2022/11/15 03:05:55;;;;;;;29.00;17.73;;;7.00;99.90;;;;;;5052570;28;20108;-69
2022/11/15 03:08:49;;;;;;;31.05;19.95;;;7.00;99.90;;;;;;5052389;28;20041;-68
2022/11/15 03:11:21;;;;;;;32.08;19.77;;;7.00;99.90;;;;;;5033698;28;20084;-69
2022/11/15 03:14:02;;;;;;;35.30;21.25;;;7.00;99.90;;;;;;5034532;28;20095;-68
2022/11/15 03:16:49;;;;;;;34.33;21.50;;;7.00;99.90;;;;;;5052248;28;20112;-69
2022/11/15 03:19:33;;;;;;;38.65;20.38;;;7.00;99.90;;;;;;5033646;28;20057;-69
2022/11/15 03:22:02;;;;;;;33.55;21.15;;;7.00;99.90;;;;;;5052364;28;20037;-68
2022/11/15 03:24:31;;;;;;;32.83;20.83;;;7.00;99.90;;;;;;5051370;28;20052;-68
2022/11/15 03:27:00;;;;;;;33.30;20.70;;;7.00;99.90;;;;;;5034156;28;20047;-69
2022/11/15 03:29:32;;;;;;;38.10;23.38;;;7.00;99.90;;;;;;5034265;28;20037;-68
2022/11/15 03:32:03;;;;;;;42.83;23.05;;;7.10;99.90;;;;;;5033317;28;20572;-68
2022/11/15 03:34:43;;;;;;;41.08;23.45;;;7.10;99.90;;;;;;5034387;28;20397;-68
2022/11/15 03:37:12;;;;;;;38.80;22.67;;;7.10;99.90;;;;;;5033976;28;20045;-68
2022/11/15 03:39:38;;;;;;;35.35;21.70;;;7.10;99.90;;;;;;5051198;28;20044;-68
2022/11/15 03:42:24;;;;;;;40.63;20.58;;;7.10;99.90;;;;;;5034004;28;20324;-68
2022/11/15 03:45:05;;;;;;;45.60;23.95;;;7.20;99.90;;;;;;5034247;28;20033;-69
2022/11/15 03:47:45;;;;;;;41.75;24.23;;;7.20;99.90;;;;;;5051186;28;20041;-68
2022/11/15 03:50:15;;;;;;;40.13;21.42;;;7.20;99.90;;;;;;5034301;28;20120;-68
2022/11/15 03:52:41;;;;;;;41.03;22.83;;;7.20;99.90;;;;;;5033427;28;20436;-68
2022/11/15 03:55:10;;;;;;;38.53;21.17;;;7.20;99.90;;;;;;5052301;28;20087;-68
2022/11/15 03:57:37;;;;;;;37.53;22.45;;;7.20;99.90;;;;;;5034013;28;20163;-68
2022/11/15 04:00:04;;;;;;;44.78;23.30;;;7.20;99.90;;;;;;5050800;28;20099;-68
2022/11/15 04:02:30;;;;;;;38.72;22.77;;;7.30;99.90;;;;;;5033726;28;20048;-68
2022/11/15 04:04:55;;;;;;;40.03;22.85;;;7.30;99.90;;;;;;5051797;28;20041;-68
2022/11/15 04:07:21;;;;;;;41.72;24.10;;;7.30;99.90;;;;;;5033213;28;20474;-68
2022/11/15 04:10:02;;;;;;;39.17;22.33;;;7.30;99.90;;;;;;5033781;28;20033;-68
2022/11/15 04:12:31;;;;;;;41.40;22.70;;;7.40;99.90;;;;;;5051640;28;20037;-69
2022/11/15 04:15:09;;;;;;;46.13;23.98;;;7.40;99.90;;;;;;5032673;28;20124;-68
2022/11/15 04:17:36;;;;;;;42.95;24.33;;;7.40;99.90;;;;;;5034051;28;20041;-68
2022/11/15 04:25:50;;;;;;;55.88;28.77;;;7.40;99.90;;;;;;5033506;28;20052;-69
2022/11/15 04:28:16;;;;;;;51.85;27.13;;;7.50;99.90;;;;;;5050720;28;20037;-69
2022/11/15 04:30:41;;;;;;;46.55;24.63;;;7.50;99.90;;;;;;5033814;28;20041;-69
2022/11/15 04:33:07;;;;;;;43.20;23.05;;;7.50;99.90;;;;;;5033765;28;20077;-69
2022/11/15 04:35:33;;;;;;;42.72;23.00;;;7.60;99.90;;;;;;5032762;28;20517;-69
2022/11/15 04:37:58;;;;;;;47.95;25.27;;;7.60;99.90;;;;;;5051203;28;20040;-69
2022/11/15 04:40:24;;;;;;;47.10;25.63;;;7.60;99.90;;;;;;5033655;28;20057;-69
2022/11/15 04:42:50;;;;;;;50.55;24.63;;;7.60;99.90;;;;;;5050472;28;20471;-70
2022/11/15 04:45:15;;;;;;;46.33;25.52;;;7.60;99.90;;;;;;5033435;28;20120;-69
2022/11/15 04:47:44;;;;;;;42.78;22.13;;;7.60;99.90;;;;;;5034075;28;20083;-69
2022/11/15 04:50:13;;;;;;;44.63;24.83;;;7.60;99.90;;;;;;5054278;28;20069;-69
2022/11/15 04:52:43;;;;;;;42.63;22.75;;;7.60;99.90;;;;;;5037202;28;20052;-69
2022/11/15 04:55:10;;;;;;;56.42;24.88;;;7.70;99.90;;;;;;5037432;28;20040;-70
2022/11/15 04:57:35;;;;;;;43.58;24.73;;;7.70;99.90;;;;;;5019574;28;20048;-69
2022/11/15 05:00:05;;;;;;;46.67;25.45;;;7.70;99.90;;;;;;5036972;28;20638;-69
2022/11/15 05:04:18;;;;;;;41.10;23.98;;;7.70;99.90;;;;;;5055057;28;20073;-69
2022/11/15 05:05:17;;;;;;;47.13;25.42;;;7.70;99.90;;;;;;5036863;28;20755;-69
2022/11/15 05:07:42;;;;;;;50.13;26.30;;;7.80;99.90;;;;;;5020592;28;20403;-69
2022/11/15 05:10:09;;;;;;;42.50;25.58;;;7.70;99.90;;;;;;5054295;28;20481;-69
2022/11/15 05:12:34;;;;;;;47.03;26.35;;;7.80;99.90;;;;;;5036618;28;20052;-69
2022/11/15 05:15:00;;;;;;;46.45;25.17;;;7.80;99.90;;;;;;5054572;28;20094;-69
2022/11/15 05:17:26;;;;;;;48.10;26.52;;;7.80;99.90;;;;;;5035932;28;20401;-69
2022/11/15 05:19:51;;;;;;;55.30;27.90;;;7.90;99.90;;;;;;5036651;28;20045;-69
2022/11/15 05:22:18;;;;;;;48.15;25.13;;;7.80;99.90;;;;;;5036472;28;20436;-69
2022/11/15 05:24:44;;;;;;;53.95;28.02;;;7.90;99.90;;;;;;5035636;28;20120;-70
2022/11/15 05:27:09;;;;;;;55.50;27.83;;;7.90;99.90;;;;;;5054732;28;20160;-70
2022/11/15 05:29:35;;;;;;;53.65;30.35;;;7.90;99.90;;;;;;5036590;28;20033;-69
2022/11/15 05:32:03;;;;;;;54.50;29.77;;;7.90;99.90;;;;;;5053251;28;20099;-70
2022/11/15 05:34:29;;;;;;;56.17;28.55;;;8.00;99.90;;;;;;5054367;28;20068;-69
2022/11/15 05:36:54;;;;;;;55.15;27.15;;;8.00;99.90;;;;;;5054308;28;20533;-69
2022/11/15 05:39:20;;;;;;;57.95;28.80;;;8.00;99.90;;;;;;5035606;28;20047;-69
2022/11/15 05:41:57;;;;;;;57.25;30.38;;;8.10;99.90;;;;;;5036025;28;20037;-70
2022/11/15 05:44:25;;;;;;;59.78;31.25;;;8.10;99.90;;;;;;5036613;28;20037;-69
2022/11/15 05:46:53;;;;;;;72.15;33.75;;;8.10;99.90;;;;;;5035253;28;20041;-70
2022/11/15 05:49:22;;;;;;;57.17;30.27;;;8.10;99.90;;;;;;5036300;28;20394;-70
2022/11/15 05:51:49;;;;;;;56.75;30.05;;;8.20;99.90;;;;;;5053919;28;20075;-69
2022/11/15 05:54:16;;;;;;;54.80;29.52;;;8.20;99.90;;;;;;5035208;28;20094;-69
2022/11/15 05:56:43;;;;;;;53.03;29.40;;;8.20;99.90;;;;;;5019317;28;20114;-70
2022/11/15 05:59:10;;;;;;;60.35;31.33;;;8.20;99.90;;;;;;5035224;28;20049;-69
2022/11/15 06:01:36;;;;;;;60.30;29.77;;;8.30;99.90;;;;;;5052936;28;20048;-71
2022/11/15 06:04:02;;;;;;;60.15;33.45;;;8.30;99.90;;;;;;5053796;28;20040;-69
2022/11/15 06:06:28;;;;;;;73.65;35.55;;;8.30;99.90;;;;;;5035054;28;20029;-70
2022/11/15 06:08:54;;;;;;;64.70;32.55;;;8.40;99.90;;;;;;5053574;28;20040;-70
2022/11/15 06:11:20;;;;;;;67.32;37.03;;;8.40;99.90;;;;;;5035439;28;20052;-70
2022/11/15 06:13:45;;;;;;;69.38;37.40;;;8.50;99.90;;;;;;5034646;28;20044;-70
2022/11/15 06:16:11;;;;;;;68.57;34.10;;;8.50;99.90;;;;;;5035809;28;20048;-70
2022/11/15 06:18:37;;;;;;;75.95;35.08;;;8.60;99.90;;;;;;5035407;28;20141;-70
2022/11/15 06:21:03;;;;;;;81.35;35.38;;;8.60;99.90;;;;;;5034627;28;20052;-70
2022/11/15 06:23:32;;;;;;;64.47;33.35;;;8.60;99.90;;;;;;5053344;28;20041;-70
2022/11/15 06:25:59;;;;;;;70.38;35.83;;;8.70;99.90;;;;;;5053092;28;20029;-70
2022/11/15 06:28:28;;;;;;;71.22;34.35;;;8.70;99.90;;;;;;5044869;28;20045;-70
2022/11/15 06:30:54;;;;;;;88.30;39.70;;;8.70;99.90;;;;;;5015439;28;20092;-70
2022/11/15 06:33:19;;;;;;;85.68;40.05;;;8.80;99.90;;;;;;5022493;28;20114;-70
2022/11/15 06:35:45;;;;;;;85.18;38.80;;;8.80;99.90;;;;;;5035679;28;20048;-70
2022/11/15 06:38:11;;;;;;;82.07;38.80;;;8.80;99.90;;;;;;5039940;28;20041;-71
2022/11/15 06:40:38;;;;;;;77.78;39.65;;;8.90;99.90;;;;;;5030878;28;20151;-70
2022/11/15 06:43:05;;;;;;;77.65;38.50;;;8.90;99.90;;;;;;5049592;28;20142;-70
2022/11/15 06:45:32;;;;;;;71.25;38.10;;;9.00;99.90;;;;;;5032725;28;20414;-71
2022/11/15 06:47:58;;;;;;;74.22;35.63;;;9.00;99.90;;;;;;5016123;28;20560;-71
2022/11/15 06:50:25;;;;;;;75.95;38.95;;;9.00;99.90;;;;;;5031519;28;20124;-71
2022/11/15 06:52:51;;;;;;;69.50;34.92;;;9.10;99.90;;;;;;5015327;28;20494;-71
2022/11/15 06:55:17;;;;;;;63.00;33.20;;;9.10;99.90;;;;;;5014164;28;20036;-71
2022/11/15 06:57:52;;;;;;;66.20;35.65;;;9.20;99.90;;;;;;5031668;28;20040;-71
2022/11/15 07:00:20;;;;;;;64.85;33.17;;;9.30;99.90;;;;;;5031833;28;20045;-71
2022/11/15 07:02:47;;;;;;;72.20;37.40;;;9.30;99.90;;;;;;5031193;28;20060;-70
2022/11/15 07:05:13;;;;;;;67.13;34.38;;;9.40;99.90;;;;;;5028032;28;20040;-71
2022/11/15 07:07:39;;;;;;;62.72;33.17;;;9.40;99.90;;;;;;5031733;28;20041;-71
2022/11/15 07:10:06;;;;;;;61.65;34.63;;;9.40;99.90;;;;;;5027957;28;20091;-71
2022/11/15 07:12:32;;;;;;;68.38;33.33;;;9.50;99.90;;;;;;5028328;28;20045;-71
2022/11/15 07:14:57;;;;;;;61.83;35.72;;;9.50;99.90;;;;;;5032281;28;20090;-71
2022/11/15 07:17:23;;;;;;;62.25;33.10;;;9.50;99.90;;;;;;5031234;28;20092;-71
2022/11/15 07:19:49;;;;;;;62.72;34.95;;;9.60;99.90;;;;;;5050564;28;20052;-70
2022/11/15 07:22:15;;;;;;;72.25;36.97;;;9.60;99.90;;;;;;5032045;28;20083;-70
2022/11/15 07:24:40;;;;;;;68.88;36.88;;;9.60;99.90;;;;;;5031549;28;20068;-71
2022/11/15 07:27:06;;;;;;;67.72;35.10;;;9.70;99.90;;;;;;5032214;28;20393;-71
2022/11/15 07:29:31;;;;;;;66.03;33.22;;;9.70;99.90;;;;;;5032243;28;20389;-70
2022/11/15 07:31:57;;;;;;;66.13;33.83;;;9.70;99.90;;;;;;5049029;28;20099;-70
2022/11/15 07:34:23;;;;;;;64.80;34.75;;;9.80;99.90;;;;;;5032187;28;20540;-70
2022/11/15 07:36:49;;;;;;;68.78;37.58;;;9.80;99.90;;;;;;5015470;28;20044;-70
2022/11/15 07:39:15;;;;;;;65.88;37.22;;;9.80;99.90;;;;;;5029484;28;20048;-70
2022/11/15 07:41:40;;;;;;;66.18;34.80;;;9.80;99.90;;;;;;5024646;28;20140;-70
2022/11/15 07:44:06;;;;;;;62.55;33.90;;;9.90;99.90;;;;;;5031220;28;20463;-70
2022/11/15 07:46:32;;;;;;;54.70;32.78;;;9.90;99.90;;;;;;5030443;28;20032;-70
2022/11/15 07:48:58;;;;;;;59.53;33.17;;;9.90;99.90;;;;;;5015235;28;20650;-69
2022/11/15 07:51:23;;;;;;;64.35;35.40;;;10.00;99.90;;;;;;5030520;28;20059;-69
2022/11/15 07:53:49;;;;;;;58.65;34.30;;;10.00;99.90;;;;;;5029739;28;20637;-70
2022/11/15 07:56:15;;;;;;;59.25;32.78;;;10.00;99.90;;;;;;5031385;28;20057;-70
2022/11/15 07:58:41;;;;;;;55.63;33.65;;;10.10;99.90;;;;;;5030479;28;20067;-70
2022/11/15 08:01:09;;;;;;;50.92;33.00;;;10.00;99.90;;;;;;5048536;28;20040;-70
2022/11/15 08:03:35;;;;;;;53.80;32.03;;;10.00;99.90;;;;;;5030848;28;20049;-70
2022/11/15 08:06:01;;;;;;;54.30;30.67;;;10.10;99.90;;;;;;5011112;28;20069;-70
2022/11/15 08:08:27;;;;;;;56.33;34.08;;;10.10;99.90;;;;;;5025934;28;20038;-70
2022/11/15 08:10:53;;;;;;;50.67;31.45;;;10.10;99.90;;;;;;5026903;28;20049;-70
2022/11/15 08:13:18;;;;;;;51.85;30.83;;;10.20;99.90;;;;;;5030325;28;20044;-70
2022/11/15 08:15:44;;;;;;;51.45;31.35;;;10.20;99.90;;;;;;5048880;28;20245;-70
2022/11/15 08:18:13;;;;;;;51.92;30.45;;;10.20;99.90;;;;;;5048764;28;20095;-70
2022/11/15 08:20:39;;;;;;;47.63;29.48;;;10.20;99.90;;;;;;5030309;28;20119;-70
2022/11/15 08:23:06;;;;;;;50.60;30.52;;;10.30;99.90;;;;;;5029879;28;20541;-70
2022/11/15 08:25:33;;;;;;;42.50;28.77;;;10.30;99.90;;;;;;5052631;28;20037;-70
2022/11/15 08:28:01;;;;;;;46.47;31.25;;;10.30;99.90;;;;;;5030721;28;20090;-70
2022/11/15 08:30:27;;;;;;;43.85;27.70;;;10.30;99.90;;;;;;5032580;28;20121;-71
2022/11/15 08:32:55;;;;;;;47.40;30.10;;;10.30;99.90;;;;;;5031473;28;20140;-70
2022/11/15 08:35:25;;;;;;;43.60;27.35;;;10.30;99.90;;;;;;5053350;28;20128;-70
2022/11/15 08:37:53;;;;;;;45.35;27.20;;;10.40;99.90;;;;;;5033696;28;20037;-71
2022/11/15 08:40:19;;;;;;;43.80;28.73;;;10.40;99.90;;;;;;5035023;28;20094;-70
2022/11/15 08:42:48;;;;;;;42.42;27.58;;;10.40;99.90;;;;;;5048223;28;20041;-70
2022/11/15 08:45:15;;;;;;;40.35;26.17;;;10.40;99.90;;;;;;5034398;28;20048;-71
2022/11/15 08:47:41;;;;;;;40.33;27.10;;;10.40;99.90;;;;;;5051834;28;20044;-70
2022/11/15 08:50:07;;;;;;;44.05;29.50;;;10.50;99.90;;;;;;5021189;28;20044;-70
2022/11/15 08:52:33;;;;;;;39.35;26.35;;;10.60;99.90;;;;;;5054372;28;20040;-70
2022/11/15 08:55:00;;;;;;;40.45;26.30;;;10.60;99.90;;;;;;5042692;28;20163;-70
2022/11/15 08:57:30;;;;;;;38.15;26.00;;;10.60;99.90;;;;;;5031172;28;20103;-70
2022/11/15 08:59:55;;;;;;;43.13;27.92;;;10.60;99.90;;;;;;5050293;28;20053;-70
2022/11/15 09:02:21;;;;;;;43.78;25.98;;;10.60;99.90;;;;;;5033313;28;20122;-70
2022/11/15 09:04:47;;;;;;;39.10;25.33;;;10.60;99.90;;;;;;5017159;28;20041;-70
2022/11/15 09:07:13;;;;;;;36.33;24.00;;;10.70;99.90;;;;;;5017267;28;20044;-70
2022/11/15 09:09:39;;;;;;;35.67;25.13;;;10.70;99.90;;;;;;5033004;28;20044;-70
2022/11/15 09:12:06;;;;;;;38.80;25.33;;;10.70;99.90;;;;;;5049581;28;20493;-70
2022/11/15 09:14:32;;;;;;;33.08;21.85;;;10.80;99.90;;;;;;5032879;28;20126;-70
2022/11/15 09:16:58;;;;;;;33.78;24.10;;;10.80;99.90;;;;;;5029302;28;20130;-70
2022/11/15 09:19:24;;;;;;;38.70;25.17;;;10.80;99.90;;;;;;5031931;28;20041;-70
2022/11/15 09:25:32;;;;;;;35.75;23.73;;;10.80;99.90;;;;;;5031996;28;20036;-70
2022/11/15 09:27:58;;;;;;;37.35;23.65;;;10.80;99.90;;;;;;5033004;28;20041;-70
2022/11/15 09:30:24;;;;;;;31.98;22.73;;;10.80;99.90;;;;;;5032651;28;20040;-71
2022/11/15 09:32:50;;;;;;;40.30;23.10;;;10.80;99.90;;;;;;5033027;28;20427;-70
2022/11/15 09:35:16;;;;;;;32.78;23.40;;;10.80;99.90;;;;;;5032268;28;20045;-71
2022/11/15 09:37:42;;;;;;;35.03;19.67;;;10.90;99.90;;;;;;5015868;28;20489;-70
2022/11/15 09:40:16;;;;;;;31.85;21.98;;;10.90;99.90;;;;;;5051676;28;20037;-70
2022/11/15 09:43:05;;;;;;;32.83;22.10;;;11.00;99.90;;;;;;5016897;28;20041;-72
2022/11/15 09:46:05;;;;;;;34.70;21.25;;;11.00;99.90;;;;;;5035222;28;20045;-69
2022/11/15 09:48:31;;;;;;;31.13;19.17;;;11.10;99.90;;;;;;5053797;28;20045;-66
2022/11/15 09:50:59;;;;;;;32.45;20.23;;;11.10;99.90;;;;;;5035293;28;20049;-66
2022/11/15 09:53:31;;;;;;;29.73;20.80;;;11.10;99.90;;;;;;5030999;28;20053;-66
2022/11/15 09:56:03;;;;;;;31.92;19.60;;;11.20;99.90;;;;;;5035232;28;20048;-66
2022/11/15 09:58:52;;;;;;;27.75;19.67;;;11.20;99.90;;;;;;5052898;28;20041;-66
2022/11/15 10:01:46;;;;;;;27.52;19.02;;;11.20;99.90;;;;;;5035317;28;20037;-66
2022/11/15 10:04:13;;;;;;;31.48;20.83;;;11.20;99.90;;;;;;4975892;28;20055;-67
2022/11/15 10:06:46;;;;;;;29.88;19.55;;;11.20;99.90;;;;;;5031447;28;20084;-66
2022/11/15 10:09:31;;;;;;;28.05;20.77;;;11.20;99.90;;;;;;5023858;28;20037;-67
2022/11/15 10:11:57;;;;;;;29.10;20.48;;;11.20;99.90;;;;;;5039722;28;20044;-67
2022/11/15 10:14:28;;;;;;;33.97;20.30;;;11.30;99.90;;;;;;5018610;28;20043;-66
2022/11/15 10:17:19;;;;;;;28.92;21.00;;;11.30;99.90;;;;;;5034797;28;20040;-72
2022/11/15 10:20:03;;;;;;;29.63;19.88;;;11.30;99.90;;;;;;5034908;28;20045;-68
2022/11/15 10:22:39;;;;;;;36.58;20.58;;;11.30;99.90;;;;;;5052705;28;20049;-69
2022/11/15 10:25:23;;;;;;;28.33;19.30;;;11.40;99.90;;;;;;5029440;28;20498;-68
2022/11/15 10:27:55;;;;;;;25.88;18.73;;;11.40;99.90;;;;;;5032681;28;20494;-68
2022/11/15 10:30:21;;;;;;;27.73;18.90;;;11.50;99.90;;;;;;5033450;28;20037;-68
2022/11/15 10:32:49;;;;;;;29.27;19.58;;;11.50;99.90;;;;;;5051898;28;20557;-68
2022/11/15 10:35:22;;;;;;;25.73;17.27;;;11.50;99.90;;;;;;5051305;28;20098;-68
2022/11/15 10:37:48;;;;;;;26.85;18.35;;;11.60;99.90;;;;;;5052019;28;20402;-68
2022/11/15 10:40:21;;;;;;;28.88;17.83;;;11.60;99.90;;;;;;5034469;28;20032;-68
2022/11/15 10:42:48;;;;;;;26.08;17.35;;;11.60;99.90;;;;;;5033502;28;20079;-68
2022/11/15 10:45:25;;;;;;;25.67;18.05;;;11.70;99.90;;;;;;5033984;28;20033;-68
2022/11/15 10:47:51;;;;;;;26.70;17.95;;;11.70;99.90;;;;;;5016740;28;20037;-68
2022/11/15 10:50:31;;;;;;;23.65;18.02;;;11.80;99.90;;;;;;5051886;28;20033;-68
2022/11/15 10:53:00;;;;;;;27.45;17.38;;;11.80;99.90;;;;;;5034402;28;20037;-68
2022/11/15 10:55:29;;;;;;;25.25;16.90;;;11.80;99.90;;;;;;5032767;28;20044;-68
2022/11/15 10:58:26;;;;;;;24.23;16.05;;;11.90;99.90;;;;;;5031218;28;20037;-69
2022/11/15 11:00:53;;;;;;;26.77;16.13;;;11.90;99.90;;;;;;5041720;28;20087;-63
2022/11/15 11:03:46;;;;;;;26.33;15.77;;;11.90;99.90;;;;;;5051374;28;20045;-63
2022/11/15 11:06:18;;;;;;;21.17;15.32;;;12.00;99.90;;;;;;4998824;28;20120;-63
2022/11/15 11:09:04;;;;;;;23.33;16.10;;;12.00;99.90;;;;;;5032923;28;20033;-62
2022/11/15 11:11:46;;;;;;;20.13;14.75;;;12.00;99.90;;;;;;5017237;28;20071;-62
2022/11/15 11:14:27;;;;;;;20.30;13.70;;;12.00;99.90;;;;;;5031684;28;20498;-68
2022/11/15 11:17:26;;;;;;;20.60;14.60;;;12.00;99.90;;;;;;5033506;28;20045;-68
2022/11/15 11:20:09;;;;;;;18.08;13.82;;;12.00;99.90;;;;;;5034447;28;20044;-67
2022/11/15 11:22:46;;;;;;;22.60;14.82;;;12.10;99.90;;;;;;5034041;28;20119;-67
2022/11/15 11:25:27;;;;;;;18.83;12.00;;;12.10;99.90;;;;;;5035251;28;20036;-67
2022/11/15 11:28:25;;;;;;;20.05;11.93;;;12.10;99.90;;;;;;5034648;28;20049;-67
2022/11/15 11:31:06;;;;;;;21.10;12.63;;;12.10;99.90;;;;;;5052093;28;20117;-67
2022/11/15 11:33:34;;;;;;;18.73;13.00;;;12.10;99.90;;;;;;5017973;28;20049;-67
2022/11/15 11:36:17;;;;;;;20.77;13.13;;;12.10;99.90;;;;;;5034348;28;20051;-67
2022/11/15 11:38:57;;;;;;;19.58;13.07;;;12.10;99.90;;;;;;5017627;28;20091;-68
2022/11/15 11:41:35;;;;;;;19.20;12.25;;;12.10;99.90;;;;;;5052477;28;20159;-68
2022/11/15 11:44:22;;;;;;;18.25;11.23;;;12.10;99.90;;;;;;5033973;28;20052;-68
2022/11/15 11:47:10;;;;;;;19.90;11.48;;;12.10;99.90;;;;;;5052202;28;20033;-68
2022/11/15 11:49:45;;;;;;;16.70;11.48;;;12.10;99.90;;;;;;5034527;28;20115;-67
2022/11/15 11:52:26;;;;;;;16.02;10.77;;;12.10;99.90;;;;;;5034067;28;20041;-67
2022/11/15 11:55:11;;;;;;;18.27;10.45;;;12.10;99.90;;;;;;5034186;28;20037;-67
2022/11/15 11:57:47;;;;;;;16.52;10.25;;;12.10;99.90;;;;;;5033806;28;20037;-68
2022/11/15 12:00:20;;;;;;;15.50;10.10;;;12.10;99.90;;;;;;5034315;28;20398;-67
2022/11/15 12:03:24;;;;;;;12.30;8.82;;;12.00;99.90;;;;;;5034016;28;20049;-68
2022/11/15 12:06:00;;;;;;;16.30;10.10;;;12.00;99.90;;;;;;5051201;28;20056;-67
2022/11/15 12:09:05;;;;;;;14.40;9.52;;;12.00;99.90;;;;;;5034321;28;20385;-67
2022/11/15 12:12:01;;;;;;;13.43;8.55;;;12.00;99.90;;;;;;5023307;28;20048;-68
2022/11/15 12:14:32;;;;;;;16.98;9.00;;;12.10;99.90;;;;;;5051935;28;20124;-67
2022/11/15 12:16:59;;;;;;;13.35;8.88;;;12.10;99.90;;;;;;5033921;28;20072;-67
2022/11/15 12:19:25;;;;;;;11.90;7.85;;;12.10;99.90;;;;;;5033079;28;20203;-67
2022/11/15 12:22:18;;;;;;;9.95;6.97;;;12.10;99.90;;;;;;5033850;28;20049;-67
2022/11/15 12:25:06;;;;;;;10.50;7.10;;;12.20;99.90;;;;;;5033816;28;20120;-67
2022/11/15 12:27:44;;;;;;;12.40;7.18;;;12.10;99.90;;;;;;5016744;28;20071;-67
2022/11/15 12:30:16;;;;;;;13.75;7.50;;;12.20;99.90;;;;;;5034400;28;20045;-67
2022/11/15 12:33:27;;;;;;;11.02;6.75;;;12.20;99.90;;;;;;5033732;28;20061;-67
2022/11/15 12:36:24;;;;;;;11.85;6.95;;;12.30;99.90;;;;;;5017468;28;20491;-68
2022/11/15 12:38:59;;;;;;;11.23;6.72;;;12.30;99.90;;;;;;5010203;28;20053;-67
2022/11/15 12:41:33;;;;;;;9.23;6.15;;;12.30;99.90;;;;;;5032759;28;20048;-67
2022/11/15 12:43:59;;;;;;;10.05;6.47;;;12.30;99.90;;;;;;5033881;28;20041;-67
2022/11/15 12:46:31;;;;;;;10.57;6.75;;;12.30;99.90;;;;;;5051585;28;20045;-67
2022/11/15 12:49:02;;;;;;;11.38;5.82;;;12.40;99.90;;;;;;5050651;28;20033;-67
2022/11/15 12:51:43;;;;;;;9.32;6.45;;;12.40;99.90;;;;;;5033907;28;20037;-67
2022/11/15 12:54:24;;;;;;;10.60;6.47;;;12.50;99.90;;;;;;5051112;28;20098;-68
2022/11/15 12:57:08;;;;;;;10.85;5.88;;;12.40;99.90;;;;;;5033416;28;20120;-69
2022/11/15 13:00:01;;;;;;;8.85;6.13;;;12.50;99.90;;;;;;5051222;28;20049;-69
2022/11/15 13:03:13;;;;;;;9.50;6.15;;;12.50;99.90;;;;;;5032840;28;20444;-69
2022/11/15 13:05:44;;;;;;;9.90;6.20;;;12.50;99.90;;;;;;5051160;28;20049;-68